Etusivu
METAR-TAF:

METAR-TAF

Lentoasemat :

Ivalo, Suomi

Ivalon lentoasema

Leveyspiiri: 68-37N, Pituuspiiri: 027-25E, korkeus merenpinnasta: 147 m

Tämänhetkinen sää

Tämä raportti tehtiin 7 minuuttia sitten, kello 16.50 UTC
Tuuli 3 kn koillisesta
Lämpötila 16°C
Kosteus 88%
Ilmanpaine 1007 hPa
Näkyvyys 10 km tai enemmän
ei pilviä alle 1500 m:ssä eikä cumulonimbus-pilviä

METAR: EFIV 191650Z AUTO 04003KT CAVOK 16/14 Q1007

Aika: 19:57 (16:57 UTC)

Sääennuste

Tämä raportti tehtiin 8 tuntia ja 19 minuuttia sitten, kello 08.38 UTC
Ennuste voimassa 19. päivästä klo 09 UTC - 19. päivään klo 11 UTC
Tuuli 3 kn idästä
Näkyvyys: 6000 m
Pilvistä 600 ft:n korkeudessa
heikkoa sadetta
Ajoittain
19. päivästä klo 09 UTC - 19. päivään klo 11 UTC
Näkyvyys: 4000 m
Hajonneita pilviä 1000 ft:n korkeudessa
Hajonneita pilviä 2500 ft:n korkeudessa, Cumulonimbus.
sadetta

TAF: EFIV 190838Z 1909/1911 10003KT 6000 -RA OVC006 TEMPO 1909/1911 4000 RA BKN010 BKN025CB

Säähavainnot ja -ennusteet yli 4000 lentoasemalta (METAR- ja TAF-raportit).

Käytössä olevat sääasemat on merkitty karttaan keltaisilla ja punaisilla pisteillä.

Aseta hiiri pisteen päälle nähdäksesi sääaseman nimen.

Klikkaa sitten nähdäksesi säähavainnot ja -ennusteet.

Kartan vaihtaminen: klikkaa mustalla rastilla varustettuja vihreitä pisteitä, niin voit zoomata sisään; viivalla varustettua vihreää pistettä, niin voit zoomata ulos tai vihreitä nuolia, niin pääset viereisille kartoille.


METAR-TAF: